TAF KCPS
KCPS 090520Z 0906/1006 14006KT P6SM SCT250 FM090900 15010G16KT P6SM BKN200 WS020/18045KT FM091600 20011G21KT P6SM FEW250 FM100300 00000KT P6SM SCT060=
METAR KCPS
WC KCPS
WS KCPS
WV KCPS